Time;durP1;ratioP1;P1;durP2;ratioP2;P2;SDS_P1;SDS_P2;PMS_P1;PMS_P2;Temp;Humidity;BMP_temperature;BMP_pressure;BME280_temperature;BME280_humidity;BME280_pressure;Samples;Min_cycle;Max_cycle;Signal;HPM_P1;HPM_P2
2022/04/30 00:02:16;;;;;;;;;29.67;26.67;;;;;28.54;21.36;102129.16;5077232;27;45423;-78
2022/04/30 00:04:47;;;;;;;;;30.67;26.00;;;;;28.72;21.23;102132.22;5077211;27;46165;-78
2022/04/30 00:07:17;;;;;;;;;29.00;26.67;;;;;28.78;20.87;102120.22;5075923;28;45545;-78
2022/04/30 00:09:43;;;;;;;;;24.67;23.67;;;;;28.96;21.11;102149.59;5077195;28;45503;-78
2022/04/30 00:12:11;;;;;;;;;30.00;26.67;;;;;28.81;21.24;102133.75;5077331;27;45462;-78
2022/04/30 00:14:38;;;;;;;;;33.67;27.67;;;;;28.70;21.45;102129.53;5076840;27;45581;-78
2022/04/30 00:17:04;;;;;;;;;29.67;25.00;;;;;28.66;21.34;102103.28;5075446;28;45444;-78
2022/04/30 00:19:30;;;;;;;;;38.00;30.00;;;;;28.80;21.10;102116.47;5077111;27;45451;-78
2022/04/30 00:21:56;;;;;;;;;29.67;27.33;;;;;28.90;21.40;102144.34;5077249;27;45311;-78
2022/04/30 00:24:23;;;;;;;;;37.00;31.00;;;;;28.92;21.45;102137.88;5076737;27;45640;-78
2022/04/30 00:26:48;;;;;;;;;32.67;31.33;;;;;28.99;21.83;102135.81;5076921;28;45216;-78
2022/04/30 00:29:14;;;;;;;;;31.67;26.67;;;;;28.85;21.51;102140.91;5077114;28;45220;-77
2022/04/30 00:31:40;;;;;;;;;37.67;32.67;;;;;28.74;21.56;102122.16;5076745;27;45565;-78
2022/04/30 00:34:06;;;;;;;;;32.33;31.67;;;;;28.84;21.77;102136.38;5076847;27;46239;-78
2022/04/30 00:36:32;;;;;;;;;29.33;29.00;;;;;28.81;21.74;102125.56;5076532;28;45350;-78
2022/04/30 00:38:57;;;;;;;;;34.00;30.67;;;;;28.77;21.85;102145.75;5076900;27;45551;-78
2022/04/30 00:41:23;;;;;;;;;33.00;29.00;;;;;28.65;21.95;102131.56;5075219;28;45618;-78
2022/04/30 00:43:50;;;;;;;;;32.00;29.00;;;;;28.57;22.21;102114.53;5075117;28;47104;-78
2022/04/30 00:46:18;;;;;;;;;29.67;28.00;;;;;28.73;21.99;102150.41;5076651;27;45489;-78
2022/04/30 00:48:44;;;;;;;;;33.33;31.00;;;;;28.78;22.05;102151.13;5076573;27;45445;-78
2022/04/30 00:51:11;;;;;;;;;28.67;25.33;;;;;28.67;21.84;102134.25;5076894;28;45396;-78
2022/04/30 00:53:39;;;;;;;;;33.00;32.00;;;;;28.54;22.01;102123.72;5076101;28;46171;-78
2022/04/30 00:56:11;;;;;;;;;30.00;28.33;;;;;28.31;22.29;102099.03;5075160;28;45433;-78
2022/04/30 00:58:38;;;;;;;;;33.33;29.00;;;;;28.47;22.08;102116.69;5076293;27;45381;-78
2022/04/30 01:01:04;;;;;;;;;31.33;26.00;;;;;28.40;22.31;102132.38;5076505;27;45406;-78
2022/04/30 01:03:29;;;;;;;;;27.33;27.33;;;;;28.25;22.36;102111.06;5075959;28;45720;-78
2022/04/30 01:05:58;;;;;;;;;30.33;30.00;;;;;28.19;22.65;102131.25;5076407;27;45485;-77
2022/04/30 01:08:27;;;;;;;;;35.00;30.67;;;;;28.04;22.67;102127.22;5076279;27;45403;-78
2022/04/30 01:10:54;;;;;;;;;27.33;27.00;;;;;27.99;23.02;102131.00;5076315;27;45578;-78
2022/04/30 01:13:20;;;;;;;;;30.00;26.00;;;;;27.94;23.37;102127.53;5075845;27;46015;-78
2022/04/30 01:15:46;;;;;;;;;35.00;32.33;;;;;27.76;23.26;102113.53;5076020;27;45512;-78
2022/04/30 01:18:12;;;;;;;;;33.33;28.00;;;;;27.70;23.09;102098.25;5076377;28;45442;-78
2022/04/30 01:20:40;;;;;;;;;28.33;25.00;;;;;27.99;22.90;102120.09;5076195;28;45353;-77
2022/04/30 01:23:07;;;;;;;;;31.67;27.00;;;;;27.76;23.13;102091.72;5076005;28;46684;-77
2022/04/30 01:25:33;;;;;;;;;28.00;25.67;;;;;27.77;23.02;102098.97;5074530;28;45394;-78
2022/04/30 01:27:59;;;;;;;;;34.33;31.00;;;;;27.84;23.37;102107.84;5075793;27;45500;-77
2022/04/30 01:30:25;;;;;;;;;34.67;32.33;;;;;27.95;22.98;102118.41;5076077;27;45405;-78
2022/04/30 01:38:20;;;;;;;;;35.67;32.00;;;;;27.84;22.91;102094.19;5076143;28;45425;-78
2022/04/30 01:40:46;;;;;;;;;36.33;28.67;;;;;27.81;23.30;102069.78;5074310;28;45432;-77
2022/04/30 01:43:12;;;;;;;;;32.67;31.00;;;;;27.96;23.14;102121.09;5075624;27;46435;-78
2022/04/30 01:45:38;;;;;;;;;36.00;31.67;;;;;27.82;23.21;102098.81;5075568;27;46157;-78
2022/04/30 01:48:05;;;;;;;;;31.67;29.00;;;;;27.80;23.29;102117.94;5075849;27;45477;-78
2022/04/30 01:50:32;;;;;;;;;29.67;26.33;;;;;27.78;23.32;102102.56;5075726;27;45626;-78
2022/04/30 01:52:58;;;;;;;;;32.67;29.33;;;;;27.77;23.28;102092.63;5074268;28;46221;-78
2022/04/30 01:55:23;;;;;;;;;33.00;29.33;;;;;27.92;23.28;102104.84;5074057;28;50172;-78
2022/04/30 01:57:49;;;;;;;;;31.33;27.67;;;;;27.69;23.52;102090.13;5075175;27;45984;-77
2022/04/30 02:00:15;;;;;;;;;35.00;28.33;;;;;27.68;23.27;102088.38;5075687;27;45334;-78
2022/04/30 02:02:45;;;;;;;;;31.33;24.00;;;;;27.76;23.20;102069.91;5075488;27;46010;-77
2022/04/30 02:05:13;;;;;;;;;38.33;31.67;;;;;27.75;23.22;102083.59;5074415;28;45676;-78
2022/04/30 02:07:43;;;;;;;;;40.33;31.67;;;;;27.73;23.33;102081.81;5075080;27;45536;-78
2022/04/30 02:10:10;;;;;;;;;31.33;26.67;;;;;27.76;23.29;102088.97;5074351;28;46257;-78
2022/04/30 02:12:36;;;;;;;;;26.33;24.00;;;;;27.71;23.54;102091.88;5073578;28;47360;-78
2022/04/30 02:15:01;;;;;;;;;32.33;30.33;;;;;27.64;23.18;102063.00;5075131;27;45362;-78
2022/04/30 02:17:29;;;;;;;;;31.33;28.00;;;;;27.72;23.54;102079.13;5075336;27;45535;-78
2022/04/30 02:20:22;;;;;;;;;32.67;31.67;;;;;27.49;23.20;102038.97;5075500;27;45531;-78
2022/04/30 02:22:49;;;;;;;;;31.33;27.33;;;;;27.80;23.25;102092.53;5073594;28;47491;-78
2022/04/30 02:25:15;;;;;;;;;33.33;25.67;;;;;27.76;23.39;102096.28;5075064;27;45422;-78
2022/04/30 02:27:43;;;;;;;;;34.67;30.00;;;;;27.52;23.54;102088.84;5075080;27;45413;-78
2022/04/30 02:30:11;;;;;;;;;31.67;28.33;;;;;27.64;23.70;102092.13;5073963;28;45625;-78
2022/04/30 02:32:40;;;;;;;;;38.33;27.00;;;;;27.76;23.32;102096.28;5075088;28;46272;-79
2022/04/30 02:35:06;;;;;;;;;38.33;34.33;;;;;27.55;23.55;102074.19;5075191;27;45456;-80
2022/04/30 02:37:31;;;;;;;;;33.33;28.33;;;;;27.42;23.30;102056.47;5075028;27;45382;-79
2022/04/30 02:39:57;;;;;;;;;34.00;29.00;;;;;27.61;23.29;102090.38;5074834;27;45441;-78
2022/04/30 02:42:22;;;;;;;;;30.33;28.67;;;;;27.64;23.94;102098.47;5074905;27;45470;-78
2022/04/30 02:44:48;;;;;;;;;34.00;28.00;;;;;27.56;23.43;102060.50;5074838;27;45488;-78
2022/04/30 02:47:13;;;;;;;;;32.33;27.00;;;;;27.70;23.47;102090.06;5074035;28;45379;-79
2022/04/30 02:49:38;;;;;;;;;25.00;25.00;;;;;27.42;23.36;102026.47;5074863;27;45493;-80
2022/04/30 02:52:04;;;;;;;;;34.33;29.67;;;;;27.57;23.56;102064.16;5074628;27;46680;-79
2022/04/30 02:54:30;;;;;;;;;26.67;23.00;;;;;27.53;23.71;102052.44;5074823;27;45314;-79
2022/04/30 02:56:56;;;;;;;;;27.67;27.00;;;;;27.54;23.36;102042.44;5073318;28;45347;-79
2022/04/30 03:02:05;;;;;;;;;37.00;30.67;;;;;27.56;23.49;102030.53;5074614;28;45378;-79
2022/04/30 03:04:30;;;;;;;;;29.33;25.33;;;;;27.66;23.60;102055.66;5076249;27;45354;-80
2022/04/30 03:06:56;;;;;;;;;27.67;26.67;;;;;27.80;23.38;102096.13;5078183;27;45542;-80
2022/04/30 03:09:21;;;;;;;;;34.33;29.33;;;;;27.56;23.38;102026.91;5076892;28;45448;-79
2022/04/30 03:11:47;;;;;;;;;28.00;27.00;;;;;27.81;23.20;102048.84;5078066;27;45439;-79
2022/04/30 03:14:13;;;;;;;;;36.00;30.33;;;;;27.95;23.40;102089.28;5076738;28;45454;-79
2022/04/30 03:22:06;;;;;;;;;30.00;23.67;;;;;27.79;23.43;102074.38;5077920;28;45408;-78
2022/04/30 03:24:32;;;;;;;;;27.33;25.33;;;;;27.56;23.68;102035.09;5077658;27;45416;-78
2022/04/30 03:26:57;;;;;;;;;34.00;27.00;;;;;27.61;23.69;102054.03;5076605;28;45389;-79
2022/04/30 03:29:23;;;;;;;;;30.67;26.33;;;;;27.61;23.47;102049.50;5078032;27;45380;-78
2022/04/30 03:31:49;;;;;;;;;34.67;29.33;;;;;27.21;23.30;102012.53;5077723;27;45407;-78
2022/04/30 03:34:15;;;;;;;;;27.00;24.33;;;;;27.53;23.94;102076.09;5077964;27;45434;-78
2022/04/30 03:36:42;;;;;;;;;32.67;31.33;;;;;27.38;23.52;102047.47;5077785;28;45476;-78
2022/04/30 03:39:08;;;;;;;;;30.67;25.00;;;;;27.08;23.84;102022.03;5077419;28;45317;-78
2022/04/30 03:41:33;;;;;;;;;32.00;30.67;;;;;27.38;23.88;102059.28;5077510;27;45411;-78
2022/04/30 03:43:58;;;;;;;;;34.67;29.33;;;;;27.30;23.73;102047.69;5066417;27;45497;-78
2022/04/30 03:46:24;;;;;;;;;30.67;27.33;;;;;27.01;24.17;102013.16;5057410;28;45433;-79
2022/04/30 03:48:53;;;;;;;;;33.33;31.00;;;;;27.20;23.77;102036.19;5056228;28;45422;-79
2022/04/30 03:51:20;;;;;;;;;30.33;26.00;;;;;27.59;23.83;102077.72;5056614;28;45636;-78
2022/04/30 03:53:46;;;;;;;;;29.67;26.33;;;;;27.55;23.65;102066.94;5056111;28;45456;-77
2022/04/30 03:56:12;;;;;;;;;36.33;29.33;;;;;27.60;23.47;102077.69;5057120;28;45424;-80
2022/04/30 03:58:37;;;;;;;;;30.67;26.67;;;;;27.49;23.66;102056.19;5056113;28;45374;-80
2022/04/30 04:01:03;;;;;;;;;32.33;27.67;;;;;27.50;23.52;102040.75;5055482;28;46989;-79
2022/04/30 04:03:28;;;;;;;;;28.33;28.33;;;;;27.68;23.81;102063.81;5057219;28;45406;-79
2022/04/30 04:05:53;;;;;;;;;33.67;27.00;;;;;27.62;23.65;102045.78;5055535;28;45278;-80
2022/04/30 04:08:20;;;;;;;;;32.00;27.67;;;;;27.69;23.53;102074.69;5072295;28;45758;-79
2022/04/30 04:10:46;;;;;;;;;29.67;27.33;;;;;27.53;23.61;102040.66;5077195;27;46121;-79
2022/04/30 04:18:40;;;;;;;;;34.00;30.67;;;;;27.43;23.54;102041.91;5077234;28;45504;-77
2022/04/30 04:21:07;;;;;;;;;31.33;25.33;;;;;27.34;23.60;102030.31;5075602;28;46249;-82
2022/04/30 04:25:58;;;;;;;;;32.00;30.33;;;;;27.56;23.97;102062.38;5075658;28;45517;-79
2022/04/30 04:26:18;;;;;;;;;24.67;24.33;;;;;27.62;23.98;102069.44;5077048;28;45591;-78
2022/04/30 04:28:44;;;;;;;;;36.33;30.67;;;;;27.33;24.09;102024.91;5072861;27;45524;-79
2022/04/30 04:31:09;;;;;;;;;35.00;31.00;;;;;27.72;23.69;102079.13;5075973;27;46229;-78
2022/04/30 04:33:35;;;;;;;;;29.67;26.00;;;;;27.79;23.74;102071.63;5076373;27;45374;-80
2022/04/30 04:36:00;;;;;;;;;32.00;29.33;;;;;27.83;23.48;102076.97;5075918;27;45489;-80
2022/04/30 04:38:25;;;;;;;;;39.00;32.00;;;;;27.70;23.61;102075.56;5076857;27;45814;-80
2022/04/30 04:40:51;;;;;;;;;32.67;26.00;;;;;27.60;23.76;102064.06;5074666;28;53718;-80
2022/04/30 04:43:16;;;;;;;;;32.67;27.67;;;;;27.51;23.68;102053.44;5089660;27;45502;-78
2022/04/30 04:45:43;;;;;;;;;32.00;29.33;;;;;27.59;23.61;102085.91;5076386;27;45555;-78
2022/04/30 04:48:09;;;;;;;;;34.33;28.33;;;;;27.53;23.83;102079.69;5076067;28;45468;-78
2022/04/30 04:50:35;;;;;;;;;32.33;29.33;;;;;27.62;23.91;102083.97;5075829;27;46145;-78
2022/04/30 04:53:00;;;;;;;;;31.00;29.00;;;;;27.63;23.65;102069.41;5073991;28;45521;-77
2022/04/30 04:55:25;;;;;;;;;37.00;32.33;;;;;27.60;23.67;102058.59;5076319;27;45560;-79
2022/04/30 04:57:51;;;;;;;;;30.00;28.67;;;;;27.71;23.50;102088.25;5073087;28;45357;-78
2022/04/30 05:00:16;;;;;;;;;35.33;31.33;;;;;27.76;23.56;102104.47;5075845;27;45968;-78
2022/04/30 05:02:43;;;;;;;;;30.00;30.00;;;;;27.55;23.67;102071.47;5073951;27;45490;-78
2022/04/30 05:05:09;;;;;;;;;33.33;29.00;;;;;27.70;23.90;102098.25;5073065;28;45646;-78
2022/04/30 05:07:34;;;;;;;;;32.33;31.00;;;;;27.72;23.69;102080.03;5076246;27;45405;-78
2022/04/30 05:10:00;;;;;;;;;31.67;31.33;;;;;27.52;23.67;102057.94;5061242;27;45469;-78
2022/04/30 05:12:26;;;;;;;;;30.00;27.67;;;;;27.69;23.59;102071.03;5056351;28;45362;-78
2022/04/30 05:14:53;;;;;;;;;29.33;28.33;;;;;27.56;23.79;102092.34;5058511;28;45600;-78
2022/04/30 05:17:18;;;;;;;;;31.67;28.00;;;;;27.42;23.74;102081.00;5056052;28;45424;-78
2022/04/30 05:19:43;;;;;;;;;32.00;29.00;;;;;27.54;24.02;102108.75;5055637;28;45392;-78
2022/04/30 05:22:09;;;;;;;;;32.33;28.67;;;;;27.58;23.83;102098.66;5059667;28;51839;-78
2022/04/30 05:24:34;;;;;;;;;37.67;30.00;;;;;27.57;23.75;102075.06;5055890;28;45330;-78
2022/04/30 05:27:01;;;;;;;;;36.33;32.00;;;;;27.83;23.71;102106.97;5061352;27;45555;-78
2022/04/30 05:29:27;;;;;;;;;40.00;30.00;;;;;27.76;23.90;102093.56;5055755;28;45520;-78
2022/04/30 05:31:52;;;;;;;;;28.67;26.33;;;;;27.95;23.64;102119.28;5058288;28;45326;-78
2022/04/30 05:34:18;;;;;;;;;38.67;32.00;;;;;27.87;23.87;102110.47;5055601;28;45750;-78
2022/04/30 05:36:43;;;;;;;;;34.67;31.67;;;;;27.86;23.69;102108.66;5071583;28;45583;-78
2022/04/30 05:39:09;;;;;;;;;31.67;27.00;;;;;27.83;23.92;102103.31;5062325;27;45404;-78
2022/04/30 05:41:34;;;;;;;;;35.00;29.50;;;;;27.82;24.02;102091.53;5054783;28;45658;-80
2022/04/30 05:43:59;;;;;;;;;34.00;30.33;;;;;28.03;23.67;102122.72;5055496;28;45381;-79
2022/04/30 05:46:25;;;;;;;;;38.00;34.33;;;;;27.90;23.69;102092.19;5058380;28;45419;-80
2022/04/30 05:48:50;;;;;;;;;30.67;27.00;;;;;27.78;23.95;102108.00;5055168;28;46200;-80
2022/04/30 05:51:16;;;;;;;;;38.33;32.67;;;;;27.67;23.86;102117.44;5055269;28;45426;-80
2022/04/30 05:53:41;;;;;;;;;49.00;36.00;;;;;27.58;23.98;102131.38;5063212;28;45588;-79
2022/04/30 05:56:07;;;;;;;;;31.67;29.33;;;;;27.54;24.21;102136.00;5075401;27;45899;-80
2022/04/30 05:58:34;;;;;;;;;36.67;33.33;;;;;27.58;24.28;102120.47;5072904;28;46256;-79
2022/04/30 06:00:59;;;;;;;;;39.00;33.67;;;;;27.56;23.65;102116.88;5075174;28;45338;-79
2022/04/30 06:03:25;;;;;;;;;35.67;31.67;;;;;27.72;24.04;102117.28;5075378;27;45845;-79
2022/04/30 06:05:50;;;;;;;;;40.67;33.00;;;;;27.89;24.19;102130.41;5075710;28;45612;-80
2022/04/30 06:08:16;;;;;;;;;34.67;28.00;;;;;27.96;23.74;102126.53;5075021;27;45422;-80
2022/04/30 06:10:41;;;;;;;;;35.33;33.00;;;;;27.88;24.02;102134.97;5074159;28;46074;-80
2022/04/30 06:13:06;;;;;;;;;36.67;32.33;;;;;27.80;24.43;102141.59;5075358;28;45459;-80
2022/04/30 06:15:32;;;;;;;;;39.00;33.00;;;;;27.67;24.07;102122.91;5073600;28;45967;-80
2022/04/30 06:17:57;;;;;;;;;39.33;35.00;;;;;27.82;23.89;102150.63;5074906;27;45349;-80
2022/04/30 06:20:23;;;;;;;;;39.00;35.00;;;;;27.67;23.80;102102.94;5073515;28;45898;-80
2022/04/30 06:22:48;;;;;;;;;35.67;33.00;;;;;27.84;23.46;102110.56;5075558;27;45841;-77
2022/04/30 06:25:14;;;;;;;;;34.33;32.00;;;;;27.87;23.92;102154.09;5073566;28;45593;-76
2022/04/30 06:27:40;;;;;;;;;40.00;35.33;;;;;27.98;23.65;102151.91;5074713;27;46403;-77
2022/04/30 06:30:07;;;;;;;;;37.67;30.67;;;;;27.89;23.60;102160.41;5074833;28;45611;-77
2022/04/30 06:32:33;;;;;;;;;42.33;34.00;;;;;28.02;23.47;102153.66;5073595;28;45461;-77
2022/04/30 06:34:59;;;;;;;;;44.33;35.00;;;;;28.09;23.52;102139.78;5073553;28;45578;-77
2022/04/30 06:37:24;;;;;;;;;43.00;33.00;;;;;28.08;23.37;102125.28;5061217;28;46431;-77
2022/04/30 06:39:50;;;;;;;;;42.67;35.33;;;;;28.27;23.10;102133.75;5077130;27;45254;-77
2022/04/30 06:42:15;;;;;;;;;35.33;33.33;;;;;28.50;23.15;102148.47;5075108;27;45438;-76
2022/04/30 06:44:40;;;;;;;;;32.67;28.67;;;;;28.55;23.29;102141.88;5075420;28;45420;-77
2022/04/30 06:47:06;;;;;;;;;33.67;32.67;;;;;28.58;23.37;102143.63;5065661;28;46890;-77
2022/04/30 06:49:31;;;;;;;;;32.33;30.00;;;;;28.66;22.81;102143.38;5066261;28;45437;-77
2022/04/30 06:51:56;;;;;;;;;37.00;32.33;;;;;28.62;23.06;102147.13;5066734;28;45543;-76
2022/04/30 06:57:11;;;;;;;;;34.67;33.67;;;;;28.51;22.59;102145.66;5065582;28;45445;-78
2022/04/30 06:59:41;;;;;;;;;38.33;31.67;;;;;28.50;22.71;102168.44;5062595;28;45482;-77
2022/04/30 07:02:13;;;;;;;;;33.33;31.00;;;;;28.56;22.85;102150.97;5067801;27;45475;-77
2022/04/30 07:04:41;;;;;;;;;35.67;32.00;;;;;28.62;22.44;102155.31;5069461;27;45969;-78
2022/04/30 07:07:07;;;;;;;;;31.33;29.33;;;;;28.68;22.57;102163.34;5062933;27;46329;-75
2022/04/30 07:09:35;;;;;;;;;31.33;28.00;;;;;28.78;22.44;102153.88;5070923;27;45388;-77
2022/04/30 07:12:04;;;;;;;;;35.67;31.00;;;;;29.01;22.12;102168.53;5054954;28;45619;-75
2022/04/30 07:14:30;;;;;;;;;25.67;23.67;;;;;28.80;22.25;102171.09;5061468;28;45577;-77
2022/04/30 07:16:55;;;;;;;;;34.67;30.00;;;;;28.75;22.00;102165.78;5056581;27;46073;-75
2022/04/30 07:19:21;;;;;;;;;34.33;32.67;;;;;28.67;22.35;102161.56;5070909;27;46050;-74
2022/04/30 07:21:46;;;;;;;;;38.00;32.33;;;;;28.78;22.28;102170.25;5067459;27;45653;-74
2022/04/30 07:24:11;;;;;;;;;28.33;28.33;;;;;28.73;22.36;102162.25;5066850;27;45621;-74
2022/04/30 07:26:36;;;;;;;;;29.67;26.00;;;;;28.60;22.25;102182.69;5065113;28;46194;-74
2022/04/30 07:29:02;;;;;;;;;31.00;27.33;;;;;28.54;22.62;102182.91;5062922;28;45404;-75
2022/04/30 07:31:27;;;;;;;;;26.67;24.33;;;;;28.80;22.22;102195.66;5062698;28;45390;-75
2022/04/30 07:33:54;;;;;;;;;30.33;29.00;;;;;28.71;22.06;102168.69;5062564;27;45618;-75
2022/04/30 07:36:19;;;;;;;;;33.00;28.00;;;;;28.84;22.21;102164.56;5066160;28;46332;-76
2022/04/30 07:38:45;;;;;;;;;27.00;25.00;;;;;28.90;22.07;102174.38;5056203;28;45840;-76
2022/04/30 07:41:10;;;;;;;;;30.67;30.67;;;;;28.73;22.08;102159.50;5064649;28;45479;-77
2022/04/30 07:43:36;;;;;;;;;29.33;26.33;;;;;28.75;22.10;102182.19;5067463;28;45799;-75
2022/04/30 07:46:01;;;;;;;;;27.33;27.33;;;;;28.50;22.61;102179.38;5062296;28;46267;-80
2022/04/30 07:48:26;;;;;;;;;35.00;29.33;;;;;28.74;22.45;102194.03;5060944;28;45439;-77
2022/04/30 07:50:57;;;;;;;;;31.67;28.33;;;;;28.62;22.31;102172.66;5064034;28;45466;-79
2022/04/30 07:53:23;;;;;;;;;31.33;25.00;;;;;29.09;22.55;102196.50;5061933;28;45615;-76
2022/04/30 07:55:49;;;;;;;;;33.33;28.00;;;;;29.18;22.15;102185.19;5067919;27;46136;-87
2022/04/30 07:58:14;;;;;;;;;29.33;26.33;;;;;29.43;21.79;102200.75;5061243;27;45729;-85
2022/04/30 08:00:40;;;;;;;;;31.00;30.00;;;;;29.21;21.51;102187.84;5057603;27;45626;-79
2022/04/30 08:03:05;;;;;;;;;26.67;25.00;;;;;29.20;21.80;102177.84;5058735;28;45454;-77
2022/04/30 08:05:31;;;;;;;;;24.00;23.33;;;;;29.54;21.31;102182.06;5058176;28;47380;-80
2022/04/30 08:07:56;;;;;;;;;27.00;21.67;;;;;29.52;21.71;102186.72;5061315;28;45513;-82
2022/04/30 08:10:22;;;;;;;;;28.33;27.00;;;;;29.39;21.45;102178.06;5060750;28;45551;-80
2022/04/30 08:12:54;;;;;;;;;20.67;20.00;;;;;29.46;21.16;102154.13;5057556;28;45668;-84
2022/04/30 08:15:20;;;;;;;;;24.67;22.67;;;;;29.61;21.36;102166.34;5064033;28;45513;-81
2022/04/30 08:17:46;;;;;;;;;23.33;22.33;;;;;29.56;21.30;102173.81;5082209;27;45507;-80
2022/04/30 08:20:11;;;;;;;;;27.33;22.67;;;;;29.25;21.46;102103.91;5065014;27;45524;-90
2022/04/30 08:22:36;;;;;;;;;25.00;23.33;;;;;29.02;21.55;102115.69;5068463;28;45534;-84
2022/04/30 08:25:03;;;;;;;;;31.00;26.67;;;;;28.93;21.51;102146.97;5062912;27;47836;-83
2022/04/30 08:27:29;;;;;;;;;25.00;23.33;;;;;28.89;21.19;102173.50;5054149;28;45484;-81
2022/04/30 08:29:54;;;;;;;;;25.33;24.00;;;;;28.84;21.68;102139.97;5060647;28;45476;-84
2022/04/30 08:32:26;;;;;;;;;28.33;24.33;;;;;29.09;21.38;102161.84;5073702;27;45349;-76
2022/04/30 08:34:52;;;;;;;;;26.33;25.33;;;;;28.95;21.26;102157.84;5062260;28;46231;-83
2022/04/30 08:37:18;;;;;;;;;27.33;24.00;;;;;29.03;21.45;102164.81;5075979;27;45673;-83
2022/04/30 08:39:44;;;;;;;;;28.33;25.33;;;;;28.95;21.20;102127.81;5063333;28;45727;-82
2022/04/30 08:42:12;;;;;;;;;24.00;22.00;;;;;29.20;21.69;102156.00;5061558;28;45489;-80
2022/04/30 08:44:39;;;;;;;;;31.00;25.33;;;;;29.26;21.36;102166.72;5066182;28;47357;-80
2022/04/30 08:47:10;;;;;;;;;26.00;21.33;;;;;28.98;21.21;102134.03;5064290;28;45539;-78
2022/04/30 08:49:41;;;;;;;;;24.33;24.00;;;;;29.16;21.00;102184.38;5057030;28;45588;-81
2022/04/30 08:52:08;;;;;;;;;22.67;22.00;;;;;29.11;21.11;102183.66;5060896;28;45747;-80
2022/04/30 08:54:33;;;;;;;;;20.33;19.33;;;;;29.13;21.28;102151.72;5067628;27;45598;-81
2022/04/30 08:56:58;;;;;;;;;25.33;22.67;;;;;29.35;20.93;102190.09;5058753;28;45945;-76
2022/04/30 08:59:24;;;;;;;;;20.33;18.67;;;;;29.03;20.83;102169.38;5060142;27;45469;-78
2022/04/30 09:01:51;;;;;;;;;26.00;20.33;;;;;28.90;20.74;102133.41;5051219;28;45597;-78
2022/04/30 09:04:21;;;;;;;;;22.33;20.67;;;;;29.20;20.92;102166.03;5063182;28;46583;-79
2022/04/30 09:06:48;;;;;;;;;20.67;19.67;;;;;29.26;20.96;102176.78;5061671;28;45659;-80
2022/04/30 09:09:28;;;;;;;;;26.33;23.00;;;;;29.09;21.19;102161.84;5057395;28;45473;-79
2022/04/30 09:11:57;;;;;;;;;21.67;19.00;;;;;29.41;21.08;102181.66;5064383;28;45659;-76
2022/04/30 09:14:26;;;;;;;;;26.67;24.00;;;;;29.49;20.91;102173.16;5067918;28;46978;-76
2022/04/30 09:17:06;;;;;;;;;21.33;19.33;;;;;29.28;20.15;102173.97;5054111;27;45412;-77
2022/04/30 09:19:44;;;;;;;;;20.00;17.00;;;;;29.37;20.16;102179.13;5057930;28;45900;-80
2022/04/30 09:22:09;;;;;;;;;23.33;19.00;;;;;29.19;20.09;102172.44;5057884;27;45475;-79
2022/04/30 09:24:48;;;;;;;;;20.67;18.33;;;;;29.25;19.95;102169.50;5058535;27;45491;-80
2022/04/30 09:27:14;;;;;;;;;18.67;17.00;;;;;28.94;20.26;102143.28;5063243;28;45409;-80
2022/04/30 09:29:40;;;;;;;;;17.67;17.00;;;;;29.18;20.38;102157.88;5061526;28;45522;-78
2022/04/30 09:32:06;;;;;;;;;18.00;18.00;;;;;29.42;20.12;102171.59;5066566;28;45484;-76
2022/04/30 09:37:42;;;;;;;;;17.00;17.00;;;;;29.76;19.54;102165.72;5060770;28;45374;-76
2022/04/30 09:40:13;;;;;;;;;16.67;16.67;;;;;29.59;19.77;102169.13;5055408;28;45563;-76
2022/04/30 09:42:40;;;;;;;;;17.67;16.00;;;;;29.82;19.43;102147.28;5056253;27;45661;-76
2022/04/30 09:45:06;;;;;;;;;20.67;17.33;;;;;29.91;19.50;102179.78;5064541;27;45680;-78
2022/04/30 09:47:33;;;;;;;;;21.33;19.33;;;;;29.80;19.63;102155.53;5055756;28;45554;-78
2022/04/30 09:55:30;;;;;;;;;20.33;16.00;;;;;30.21;19.03;102154.84;5062042;28;45903;-75
2022/04/30 09:57:57;;;;;;;;;15.00;15.00;;;;;30.14;19.31;102139.63;5064580;28;45933;-75
2022/04/30 10:00:22;;;;;;;;;16.33;15.33;;;;;30.38;18.35;102171.47;5062297;27;45477;-78
2022/04/30 10:02:57;;;;;;;;;14.67;11.67;;;;;30.26;19.19;102141.88;5061463;27;46396;-78
2022/04/30 10:05:24;;;;;;;;;18.00;16.00;;;;;30.14;19.02;102129.59;5058192;27;45688;-80
2022/04/30 10:07:49;;;;;;;;;15.00;13.33;;;;;30.05;18.29;102169.16;5065232;28;45556;-79
2022/04/30 10:10:50;;;;;;;;;18.67;17.67;;;;;30.16;19.04;102156.91;5057974;28;45635;-77
2022/04/30 10:13:25;;;;;;;;;13.67;13.67;;;;;30.13;19.28;102126.91;5062839;28;45698;-81
2022/04/30 10:15:53;;;;;;;;;16.67;13.00;;;;;30.38;18.54;102149.56;5061573;28;47200;-78
2022/04/30 10:18:23;;;;;;;;;15.00;13.33;;;;;30.28;18.80;102140.84;5064307;27;45546;-76
2022/04/30 10:20:56;;;;;;;;;15.67;14.33;;;;;30.19;18.80;102134.88;5063693;28;45704;-84
2022/04/30 10:23:21;;;;;;;;;15.67;13.33;;;;;30.21;19.16;102147.53;5064377;28;45585;-82
2022/04/30 10:25:48;;;;;;;;;15.33;14.00;;;;;30.12;18.67;102136.97;5065407;28;45940;-78
2022/04/30 10:28:18;;;;;;;;;14.67;13.67;;;;;30.40;18.83;102141.28;5057912;28;45459;-78
2022/04/30 10:31:11;;;;;;;;;24.00;19.67;;;;;30.54;18.59;102147.09;5067346;27;45611;-78
2022/04/30 10:33:47;;;;;;;;;17.00;14.67;;;;;30.84;18.04;102148.56;5057120;28;45521;-78
2022/04/30 10:36:13;;;;;;;;;14.33;13.33;;;;;30.56;18.06;102112.31;5053359;28;47202;-78
2022/04/30 10:38:40;;;;;;;;;16.33;16.33;;;;;30.42;18.18;102147.56;5054598;28;45461;-78
2022/04/30 10:41:08;;;;;;;;;13.33;13.33;;;;;30.41;18.49;102130.25;5070403;28;45493;-78
2022/04/30 10:43:42;;;;;;;;;14.33;13.67;;;;;30.84;18.41;102134.84;5054767;28;45265;-78
2022/04/30 10:46:13;;;;;;;;;13.33;13.33;;;;;31.18;18.38;102133.34;5054516;28;46162;-78
2022/04/30 10:48:39;;;;;;;;;16.00;13.00;;;;;31.20;18.19;102135.06;5054735;28;45441;-78
2022/04/30 10:51:12;;;;;;;;;17.00;14.00;;;;;31.01;17.83;102098.44;5054640;28;45552;-78
2022/04/30 10:53:46;;;;;;;;;13.67;13.67;;;;;30.99;17.91;102114.97;5054328;28;45488;-78
2022/04/30 10:56:13;;;;;;;;;15.33;14.33;;;;;31.23;17.53;102123.94;5061494;28;45427;-78
2022/04/30 10:58:39;;;;;;;;;16.33;13.00;;;;;31.46;17.86;102125.63;5054633;28;45339;-78
2022/04/30 11:01:16;;;;;;;;;13.33;12.67;;;;;31.35;17.68;102111.53;5054617;28;45363;-78
2022/04/30 11:03:43;;;;;;;;;15.00;14.00;;;;;31.30;17.34;102113.59;5064014;28;45359;-77
2022/04/30 11:06:12;;;;;;;;;12.67;12.33;;;;;31.38;17.69;102092.19;5074191;28;45696;-78
2022/04/30 11:08:38;;;;;;;;;13.33;12.33;;;;;31.42;18.13;102080.09;5053855;28;45471;-78
2022/04/30 11:11:03;;;;;;;;;16.67;13.00;;;;;31.26;17.46;102081.78;5054391;28;45401;-77
2022/04/30 11:13:29;;;;;;;;;14.33;13.00;;;;;31.28;17.47;102110.91;5052961;28;45463;-78
2022/04/30 11:15:58;;;;;;;;;11.00;10.00;;;;;31.22;17.31;102096.59;5054332;28;45410;-77
2022/04/30 11:18:24;;;;;;;;;16.00;13.00;;;;;31.45;17.66;102101.88;5053951;28;45268;-77
2022/04/30 11:20:58;;;;;;;;;10.67;10.00;;;;;31.69;17.67;102098.03;5054174;28;45272;-77
2022/04/30 11:23:23;;;;;;;;;13.33;12.33;;;;;31.71;17.62;102065.94;5053709;28;45398;-78
2022/04/30 11:25:49;;;;;;;;;12.00;9.33;;;;;31.85;16.86;102088.09;5054446;28;47235;-78
2022/04/30 11:28:14;;;;;;;;;9.67;9.00;;;;;31.61;17.24;102073.75;5057412;28;45406;-77
2022/04/30 11:30:42;;;;;;;;;9.00;8.00;;;;;31.89;16.55;102086.97;5057798;28;45439;-78
2022/04/30 11:33:08;;;;;;;;;7.00;7.00;;;;;31.96;16.44;102068.34;5057508;28;45389;-78
2022/04/30 11:35:35;;;;;;;;;9.00;8.00;;;;;32.03;16.70;102069.81;5057169;28;46414;-78
2022/04/30 11:38:01;;;;;;;;;9.00;9.00;;;;;32.21;17.05;102069.84;5055773;28;45343;-78
2022/04/30 11:40:26;;;;;;;;;9.00;8.00;;;;;32.34;16.73;102062.78;5055903;28;45510;-78